sensor_id;sensor_type;location;lat;lon;timestamp;temperature;humidity
11619;DHT22;5865;48.776;9.280;2023-03-20T01:39:31;8.20;99.90
11619;DHT22;5865;48.776;9.280;2023-03-20T01:42:00;8.20;99.90
11619;DHT22;5865;48.776;9.280;2023-03-20T01:44:31;8.20;99.90
11619;DHT22;5865;48.776;9.280;2023-03-20T02:31:51;8.10;99.90
11619;DHT22;5865;48.776;9.280;2023-03-20T03:08:19;8.00;99.90
11619;DHT22;5865;48.776;9.280;2023-03-20T03:33:19;8.00;99.90
11619;DHT22;5865;48.776;9.280;2023-03-20T03:36:08;8.00;99.90
11619;DHT22;5865;48.776;9.280;2023-03-20T03:38:54;7.90;99.90
11619;DHT22;5865;48.776;9.280;2023-03-20T03:41:38;7.90;99.90
11619;DHT22;5865;48.776;9.280;2023-03-20T03:44:22;7.90;99.90
11619;DHT22;5865;48.776;9.280;2023-03-20T03:47:10;7.90;99.90
11619;DHT22;5865;48.776;9.280;2023-03-20T03:49:59;7.90;99.90
11619;DHT22;5865;48.776;9.280;2023-03-20T03:52:37;7.90;99.90
11619;DHT22;5865;48.776;9.280;2023-03-20T03:55:09;7.90;99.90
11619;DHT22;5865;48.776;9.280;2023-03-20T03:58:14;7.90;99.90
11619;DHT22;5865;48.776;9.280;2023-03-20T04:00:58;7.90;99.90
11619;DHT22;5865;48.776;9.280;2023-03-20T04:03:44;7.90;99.90
11619;DHT22;5865;48.776;9.280;2023-03-20T04:06:45;7.90;99.90
11619;DHT22;5865;48.776;9.280;2023-03-20T04:09:27;8.00;99.90
11619;DHT22;5865;48.776;9.280;2023-03-20T04:12:25;8.00;99.90
11619;DHT22;5865;48.776;9.280;2023-03-20T04:15:10;7.90;99.90
11619;DHT22;5865;48.776;9.280;2023-03-20T04:23:04;7.90;99.90
11619;DHT22;5865;48.776;9.280;2023-03-20T04:25:44;7.90;99.90
11619;DHT22;5865;48.776;9.280;2023-03-20T04:31:09;7.90;99.90
11619;DHT22;5865;48.776;9.280;2023-03-20T04:37:18;7.90;99.90
11619;DHT22;5865;48.776;9.280;2023-03-20T04:39:57;7.90;99.90
11619;DHT22;5865;48.776;9.280;2023-03-20T04:42:23;7.90;99.90
11619;DHT22;5865;48.776;9.280;2023-03-20T04:47:23;7.80;99.90
11619;DHT22;5865;48.776;9.280;2023-03-20T04:49:50;7.80;99.90
11619;DHT22;5865;48.776;9.280;2023-03-20T04:52:18;7.80;99.90
11619;DHT22;5865;48.776;9.280;2023-03-20T04:54:45;7.80;99.90
11619;DHT22;5865;48.776;9.280;2023-03-20T04:57:13;7.70;99.90
11619;DHT22;5865;48.776;9.280;2023-03-20T04:59:40;7.80;99.90
11619;DHT22;5865;48.776;9.280;2023-03-20T05:02:07;7.70;99.90
11619;DHT22;5865;48.776;9.280;2023-03-20T05:04:39;7.70;99.90
11619;DHT22;5865;48.776;9.280;2023-03-20T05:07:09;7.80;99.90
11619;DHT22;5865;48.776;9.280;2023-03-20T05:09:54;7.80;99.90
11619;DHT22;5865;48.776;9.280;2023-03-20T05:53:30;8.10;99.90
11619;DHT22;5865;48.776;9.280;2023-03-20T05:56:14;8.00;99.90
11619;DHT22;5865;48.776;9.280;2023-03-20T06:02:37;8.10;99.90
11619;DHT22;5865;48.776;9.280;2023-03-20T08:00:55;11.20;99.90
11619;DHT22;5865;48.776;9.280;2023-03-20T08:05:50;11.00;99.90
11619;DHT22;5865;48.776;9.280;2023-03-20T08:18:14;12.50;99.90
11619;DHT22;5865;48.776;9.280;2023-03-20T08:25:51;13.20;99.90
11619;DHT22;5865;48.776;9.280;2023-03-20T08:30:52;13.10;99.90
11619;DHT22;5865;48.776;9.280;2023-03-20T08:33:19;12.80;99.90
11619;DHT22;5865;48.776;9.280;2023-03-20T08:35:54;12.30;99.90
11619;DHT22;5865;48.776;9.280;2023-03-20T08:45:48;13.10;99.90
11619;DHT22;5865;48.776;9.280;2023-03-20T08:48:15;14.10;99.90
11619;DHT22;5865;48.776;9.280;2023-03-20T08:50:43;13.60;99.90
11619;DHT22;5865;48.776;9.280;2023-03-20T08:55:40;13.90;99.90
11619;DHT22;5865;48.776;9.280;2023-03-20T08:58:07;13.30;99.90
11619;DHT22;5865;48.776;9.280;2023-03-20T09:03:03;13.60;99.90
11619;DHT22;5865;48.776;9.280;2023-03-20T09:05:30;13.50;99.90
11619;DHT22;5865;48.776;9.280;2023-03-20T09:07:59;13.40;99.90
11619;DHT22;5865;48.776;9.280;2023-03-20T09:10:27;13.20;99.90
11619;DHT22;5865;48.776;9.280;2023-03-20T09:12:55;13.00;99.90
11619;DHT22;5865;48.776;9.280;2023-03-20T09:17:49;14.00;99.90
11619;DHT22;5865;48.776;9.280;2023-03-20T09:20:19;14.60;99.90
11619;DHT22;5865;48.776;9.280;2023-03-20T09:25:14;15.60;99.90
11619;DHT22;5865;48.776;9.280;2023-03-20T09:30:12;14.70;99.90
11619;DHT22;5865;48.776;9.280;2023-03-20T09:32:40;14.70;99.90
11619;DHT22;5865;48.776;9.280;2023-03-20T09:40:21;13.60;99.90
11619;DHT22;5865;48.776;9.280;2023-03-20T09:45:32;14.00;99.90
11619;DHT22;5865;48.776;9.280;2023-03-20T09:50:37;14.50;99.90
11619;DHT22;5865;48.776;9.280;2023-03-20T09:53:20;14.80;99.90
11619;DHT22;5865;48.776;9.280;2023-03-20T09:55:51;14.70;99.90
11619;DHT22;5865;48.776;9.280;2023-03-20T10:21:37;14.40;99.90
11619;DHT22;5865;48.776;9.280;2023-03-20T10:42:29;13.70;99.90
11619;DHT22;5865;48.776;9.280;2023-03-20T10:50:13;13.00;99.90
11619;DHT22;5865;48.776;9.280;2023-03-20T10:55:27;13.30;99.90
11619;DHT22;5865;48.776;9.280;2023-03-20T11:38:11;12.80;99.90
11619;DHT22;5865;48.776;9.280;2023-03-20T11:46:12;13.70;99.90
11619;DHT22;5865;48.776;9.280;2023-03-20T12:09:44;15.10;99.90
11619;DHT22;5865;48.776;9.280;2023-03-20T12:17:31;14.80;99.90
11619;DHT22;5865;48.776;9.280;2023-03-20T13:43:40;20.00;98.40
11619;DHT22;5865;48.776;9.280;2023-03-20T15:02:00;14.60;99.90
11619;DHT22;5865;48.776;9.280;2023-03-20T15:04:33;14.40;99.90
11619;DHT22;5865;48.776;9.280;2023-03-20T15:07:05;14.30;99.90
11619;DHT22;5865;48.776;9.280;2023-03-20T15:09:39;14.30;99.90
11619;DHT22;5865;48.776;9.280;2023-03-20T15:12:09;14.20;99.90
11619;DHT22;5865;48.776;9.280;2023-03-20T15:14:42;14.20;99.90
11619;DHT22;5865;48.776;9.280;2023-03-20T15:17:18;14.20;99.90
11619;DHT22;5865;48.776;9.280;2023-03-20T15:19:47;14.20;99.90
11619;DHT22;5865;48.776;9.280;2023-03-20T15:22:17;14.10;99.90
11619;DHT22;5865;48.776;9.280;2023-03-20T15:24:53;14.00;99.90
11619;DHT22;5865;48.776;9.280;2023-03-20T15:27:20;14.10;99.90
11619;DHT22;5865;48.776;9.280;2023-03-20T15:29:52;14.10;99.90
11619;DHT22;5865;48.776;9.280;2023-03-20T15:32:23;14.10;99.90
11619;DHT22;5865;48.776;9.280;2023-03-20T15:34:51;14.10;99.90
11619;DHT22;5865;48.776;9.280;2023-03-20T15:37:22;14.20;99.90
11619;DHT22;5865;48.776;9.280;2023-03-20T15:39:52;14.20;99.90
11619;DHT22;5865;48.776;9.280;2023-03-20T15:42:23;14.30;99.90
11619;DHT22;5865;48.776;9.280;2023-03-20T15:44:52;14.20;99.90
11619;DHT22;5865;48.776;9.280;2023-03-20T15:47:22;14.20;99.90
11619;DHT22;5865;48.776;9.280;2023-03-20T15:49:52;14.40;99.90
11619;DHT22;5865;48.776;9.280;2023-03-20T15:52:26;14.40;99.90
11619;DHT22;5865;48.776;9.280;2023-03-20T15:54:55;14.50;99.90
11619;DHT22;5865;48.776;9.280;2023-03-20T15:57:25;14.40;99.90
11619;DHT22;5865;48.776;9.280;2023-03-20T15:59:58;14.40;99.90
11619;DHT22;5865;48.776;9.280;2023-03-20T16:02:29;14.40;99.90
11619;DHT22;5865;48.776;9.280;2023-03-20T16:04:56;14.30;99.90
11619;DHT22;5865;48.776;9.280;2023-03-20T16:07:27;14.10;99.90
11619;DHT22;5865;48.776;9.280;2023-03-20T16:09:55;14.10;99.90
11619;DHT22;5865;48.776;9.280;2023-03-20T16:12:25;14.10;99.90
11619;DHT22;5865;48.776;9.280;2023-03-20T16:14:57;14.00;99.90
11619;DHT22;5865;48.776;9.280;2023-03-20T16:17:26;13.90;99.90
11619;DHT22;5865;48.776;9.280;2023-03-20T16:19:53;13.70;99.90
11619;DHT22;5865;48.776;9.280;2023-03-20T16:22:23;13.60;99.90
11619;DHT22;5865;48.776;9.280;2023-03-20T16:24:54;13.50;99.90
11619;DHT22;5865;48.776;9.280;2023-03-20T16:27:26;13.80;99.90
11619;DHT22;5865;48.776;9.280;2023-03-20T16:29:55;13.50;99.90
11619;DHT22;5865;48.776;9.280;2023-03-20T16:32:31;13.60;99.90
11619;DHT22;5865;48.776;9.280;2023-03-20T16:35:03;13.60;99.90
11619;DHT22;5865;48.776;9.280;2023-03-20T16:37:36;13.60;99.90
11619;DHT22;5865;48.776;9.280;2023-03-20T16:40:13;13.50;99.90
11619;DHT22;5865;48.776;9.280;2023-03-20T16:42:41;13.60;99.90
11619;DHT22;5865;48.776;9.280;2023-03-20T16:45:19;13.70;99.90
11619;DHT22;5865;48.776;9.280;2023-03-20T16:47:48;13.60;99.90
11619;DHT22;5865;48.776;9.280;2023-03-20T16:50:19;13.60;99.90
11619;DHT22;5865;48.776;9.280;2023-03-20T16:52:49;13.60;99.90
11619;DHT22;5865;48.776;9.280;2023-03-20T16:55:21;13.30;99.90
11619;DHT22;5865;48.776;9.280;2023-03-20T16:57:52;13.30;99.90
11619;DHT22;5865;48.776;9.280;2023-03-20T17:00:28;13.20;99.90
11619;DHT22;5865;48.776;9.280;2023-03-20T17:03:18;13.00;99.90
11619;DHT22;5865;48.776;9.280;2023-03-20T17:05:50;12.80;99.90
11619;DHT22;5865;48.776;9.280;2023-03-20T17:10:56;12.60;99.90
11619;DHT22;5865;48.776;9.280;2023-03-20T17:13:23;12.60;99.90
11619;DHT22;5865;48.776;9.280;2023-03-20T17:15:50;12.40;99.90
11619;DHT22;5865;48.776;9.280;2023-03-20T17:18:18;12.40;99.90
11619;DHT22;5865;48.776;9.280;2023-03-20T17:20:45;12.40;99.90
11619;DHT22;5865;48.776;9.280;2023-03-20T17:23:15;12.40;99.90
11619;DHT22;5865;48.776;9.280;2023-03-20T17:25:45;12.10;99.90
11619;DHT22;5865;48.776;9.280;2023-03-20T17:28:17;11.90;99.90
11619;DHT22;5865;48.776;9.280;2023-03-20T17:30:46;11.90;99.90
11619;DHT22;5865;48.776;9.280;2023-03-20T17:33:14;11.80;99.90
11619;DHT22;5865;48.776;9.280;2023-03-20T17:35:43;11.60;99.90
11619;DHT22;5865;48.776;9.280;2023-03-20T17:38:20;11.40;99.90
11619;DHT22;5865;48.776;9.280;2023-03-20T17:40:48;11.40;99.90
11619;DHT22;5865;48.776;9.280;2023-03-20T17:43:17;11.30;99.90
11619;DHT22;5865;48.776;9.280;2023-03-20T17:45:45;11.30;99.90
11619;DHT22;5865;48.776;9.280;2023-03-20T17:48:14;11.30;99.90
11619;DHT22;5865;48.776;9.280;2023-03-20T17:50:45;11.10;99.90
11619;DHT22;5865;48.776;9.280;2023-03-20T17:53:17;11.00;99.90
11619;DHT22;5865;48.776;9.280;2023-03-20T17:55:44;11.00;99.90
11619;DHT22;5865;48.776;9.280;2023-03-20T17:58:14;11.10;99.90
11619;DHT22;5865;48.776;9.280;2023-03-20T18:00:41;11.10;99.90
11619;DHT22;5865;48.776;9.280;2023-03-20T18:03:08;11.00;99.90
11619;DHT22;5865;48.776;9.280;2023-03-20T18:05:35;10.90;99.90
11619;DHT22;5865;48.776;9.280;2023-03-20T18:10:33;10.80;99.90
11619;DHT22;5865;48.776;9.280;2023-03-20T18:13:01;10.70;99.90
11619;DHT22;5865;48.776;9.280;2023-03-20T18:15:28;10.60;99.90
11619;DHT22;5865;48.776;9.280;2023-03-20T18:17:55;10.70;99.90
11619;DHT22;5865;48.776;9.280;2023-03-20T18:20:25;10.60;99.90
11619;DHT22;5865;48.776;9.280;2023-03-20T18:22:53;10.60;99.90
11619;DHT22;5865;48.776;9.280;2023-03-20T18:27:52;10.60;99.90
11619;DHT22;5865;48.776;9.280;2023-03-20T18:32:48;10.60;99.90
11619;DHT22;5865;48.776;9.280;2023-03-20T18:35:16;10.60;99.90
11619;DHT22;5865;48.776;9.280;2023-03-20T18:37:44;10.70;99.90
11619;DHT22;5865;48.776;9.280;2023-03-20T18:40:17;10.60;99.90
11619;DHT22;5865;48.776;9.280;2023-03-20T18:42:47;10.60;99.90
11619;DHT22;5865;48.776;9.280;2023-03-20T18:47:42;10.60;99.90
11619;DHT22;5865;48.776;9.280;2023-03-20T18:50:22;10.60;99.90
11619;DHT22;5865;48.776;9.280;2023-03-20T18:52:49;10.50;99.90
11619;DHT22;5865;48.776;9.280;2023-03-20T18:55:20;10.40;99.90
11619;DHT22;5865;48.776;9.280;2023-03-20T18:57:52;10.40;99.90
11619;DHT22;5865;48.776;9.280;2023-03-20T19:00:25;10.40;99.90
11619;DHT22;5865;48.776;9.280;2023-03-20T19:02:54;10.30;99.90
11619;DHT22;5865;48.776;9.280;2023-03-20T19:05:25;10.20;99.90
11619;DHT22;5865;48.776;9.280;2023-03-20T19:07:53;10.20;99.90
11619;DHT22;5865;48.776;9.280;2023-03-20T19:10:27;10.20;99.90
11619;DHT22;5865;48.776;9.280;2023-03-20T19:12:57;10.10;99.90
11619;DHT22;5865;48.776;9.280;2023-03-20T19:15:27;10.10;99.90
11619;DHT22;5865;48.776;9.280;2023-03-20T19:20:40;10.00;99.90
11619;DHT22;5865;48.776;9.280;2023-03-20T19:23:10;10.00;99.90
11619;DHT22;5865;48.776;9.280;2023-03-20T19:25:38;9.90;99.90
11619;DHT22;5865;48.776;9.280;2023-03-20T19:28:07;10.00;99.90
11619;DHT22;5865;48.776;9.280;2023-03-20T19:33:05;9.90;99.90
11619;DHT22;5865;48.776;9.280;2023-03-20T19:35:35;9.90;99.90
11619;DHT22;5865;48.776;9.280;2023-03-20T19:38:03;9.90;99.90
11619;DHT22;5865;48.776;9.280;2023-03-20T19:40:32;9.80;99.90
11619;DHT22;5865;48.776;9.280;2023-03-20T19:43:00;9.80;99.90
11619;DHT22;5865;48.776;9.280;2023-03-20T19:45:31;9.80;99.90
11619;DHT22;5865;48.776;9.280;2023-03-20T19:48:00;9.80;99.90
11619;DHT22;5865;48.776;9.280;2023-03-20T19:53:00;9.70;99.90
11619;DHT22;5865;48.776;9.280;2023-03-20T19:57:57;9.60;99.90
11619;DHT22;5865;48.776;9.280;2023-03-20T20:00:26;9.60;99.90
11619;DHT22;5865;48.776;9.280;2023-03-20T20:03:15;9.50;99.90
11619;DHT22;5865;48.776;9.280;2023-03-20T20:08:12;9.40;99.90
11619;DHT22;5865;48.776;9.280;2023-03-20T20:10:43;9.30;99.90
11619;DHT22;5865;48.776;9.280;2023-03-20T20:13:14;9.30;99.90
11619;DHT22;5865;48.776;9.280;2023-03-20T20:15:43;9.30;99.90
11619;DHT22;5865;48.776;9.280;2023-03-20T20:25:39;9.20;99.90
11619;DHT22;5865;48.776;9.280;2023-03-20T20:33:35;9.00;99.90
11619;DHT22;5865;48.776;9.280;2023-03-20T20:36:08;8.80;99.90
11619;DHT22;5865;48.776;9.280;2023-03-20T20:38:35;8.60;99.90
11619;DHT22;5865;48.776;9.280;2023-03-20T20:41:03;8.50;99.90
11619;DHT22;5865;48.776;9.280;2023-03-20T20:51:03;8.30;99.90
11619;DHT22;5865;48.776;9.280;2023-03-20T20:55:58;8.20;99.90
11619;DHT22;5865;48.776;9.280;2023-03-20T21:08:21;8.40;99.90
11619;DHT22;5865;48.776;9.280;2023-03-20T21:10:49;8.50;99.90
11619;DHT22;5865;48.776;9.280;2023-03-20T21:13:27;8.40;99.90
11619;DHT22;5865;48.776;9.280;2023-03-20T21:18:24;8.50;99.90
11619;DHT22;5865;48.776;9.280;2023-03-20T21:21:01;8.50;99.90
11619;DHT22;5865;48.776;9.280;2023-03-20T21:23:45;8.50;99.90
11619;DHT22;5865;48.776;9.280;2023-03-20T21:31:21;8.50;99.90
11619;DHT22;5865;48.776;9.280;2023-03-20T21:33:51;8.50;99.90
11619;DHT22;5865;48.776;9.280;2023-03-20T21:38:49;8.50;99.90
11619;DHT22;5865;48.776;9.280;2023-03-20T21:43:49;8.60;99.90
11619;DHT22;5865;48.776;9.280;2023-03-20T21:48:44;8.60;99.90
11619;DHT22;5865;48.776;9.280;2023-03-20T21:51:12;8.50;99.90
11619;DHT22;5865;48.776;9.280;2023-03-20T21:56:08;8.40;99.90
11619;DHT22;5865;48.776;9.280;2023-03-20T21:58:37;8.40;99.90
11619;DHT22;5865;48.776;9.280;2023-03-20T22:01:06;8.20;99.90
11619;DHT22;5865;48.776;9.280;2023-03-20T22:06:10;8.20;99.90
11619;DHT22;5865;48.776;9.280;2023-03-20T22:08:38;8.10;99.90
11619;DHT22;5865;48.776;9.280;2023-03-20T22:11:07;8.10;99.90
11619;DHT22;5865;48.776;9.280;2023-03-20T22:13:35;8.10;99.90
11619;DHT22;5865;48.776;9.280;2023-03-20T22:16:02;8.00;99.90
11619;DHT22;5865;48.776;9.280;2023-03-20T22:18:30;8.00;99.90
11619;DHT22;5865;48.776;9.280;2023-03-20T22:21:06;8.10;99.90
11619;DHT22;5865;48.776;9.280;2023-03-20T22:23:34;8.10;99.90
11619;DHT22;5865;48.776;9.280;2023-03-20T22:26:04;8.10;99.90
11619;DHT22;5865;48.776;9.280;2023-03-20T22:28:49;8.10;99.90
11619;DHT22;5865;48.776;9.280;2023-03-20T22:36:15;8.20;99.90
11619;DHT22;5865;48.776;9.280;2023-03-20T22:38:44;8.10;99.90
11619;DHT22;5865;48.776;9.280;2023-03-20T22:41:14;8.20;99.90
11619;DHT22;5865;48.776;9.280;2023-03-20T22:43:43;8.20;99.90
11619;DHT22;5865;48.776;9.280;2023-03-20T22:46:12;8.20;99.90
11619;DHT22;5865;48.776;9.280;2023-03-20T22:51:08;8.20;99.90
11619;DHT22;5865;48.776;9.280;2023-03-20T22:56:05;7.30;99.90
11619;DHT22;5865;48.776;9.280;2023-03-20T23:01:01;8.10;99.90
11619;DHT22;5865;48.776;9.280;2023-03-20T23:03:32;8.10;99.90
11619;DHT22;5865;48.776;9.280;2023-03-20T23:06:05;8.10;99.90
11619;DHT22;5865;48.776;9.280;2023-03-20T23:08:32;8.10;99.90
11619;DHT22;5865;48.776;9.280;2023-03-20T23:11:04;8.10;99.90
11619;DHT22;5865;48.776;9.280;2023-03-20T23:21:11;8.20;99.90
11619;DHT22;5865;48.776;9.280;2023-03-20T23:23:53;8.20;99.90
11619;DHT22;5865;48.776;9.280;2023-03-20T23:28:49;8.40;99.90
11619;DHT22;5865;48.776;9.280;2023-03-20T23:31:19;8.40;99.90
11619;DHT22;5865;48.776;9.280;2023-03-20T23:33:59;8.50;99.90
11619;DHT22;5865;48.776;9.280;2023-03-20T23:36:30;8.30;99.90
11619;DHT22;5865;48.776;9.280;2023-03-20T23:38:57;8.40;99.90
11619;DHT22;5865;48.776;9.280;2023-03-20T23:41:26;8.30;99.90
11619;DHT22;5865;48.776;9.280;2023-03-20T23:46:24;8.30;99.90
11619;DHT22;5865;48.776;9.280;2023-03-20T23:48:51;8.30;99.90
11619;DHT22;5865;48.776;9.280;2023-03-20T23:53:52;8.20;99.90
11619;DHT22;5865;48.776;9.280;2023-03-20T23:56:19;8.20;99.90
